VTD108 UWSG-ZZZZ
Flight info
| Callsign | VTD108 |
|---|---|
| Flight time | N/A |
| Altitude | 2000 |
| Route | /RA/A020 |
| Aircraft | C172/L-SDFGY/C |
Departure
| Time | 2026-04-26 11:16 |
|---|---|
| Airport | Gagarin International Airport (UWSG) |
Arrival
| Time | N/A |
|---|---|
| Airport | ZZZZ |
| Time | Latitude | Longitude | Altitude | Speed | Heading |
|---|---|---|---|---|---|
| 2026-04-26 10:40 | 51.71562 | 46.17025 | 106 ft | 0 kts | 181° |
| 2026-04-26 11:10 | 51.71567 | 46.17025 | 106 ft | 1 kts | 1° |
| 2026-04-26 11:10 | 51.71604 | 46.17027 | 106 ft | 8 kts | 4° |
| 2026-04-26 11:10 | 51.71632 | 46.17074 | 106 ft | 6 kts | 96° |
| 2026-04-26 11:11 | 51.71630 | 46.17128 | 106 ft | 4 kts | 89° |
| 2026-04-26 11:11 | 51.71630 | 46.17176 | 106 ft | 4 kts | 92° |
| 2026-04-26 11:11 | 51.71628 | 46.17230 | 106 ft | 6 kts | 92° |
| 2026-04-26 11:11 | 51.71627 | 46.17315 | 106 ft | 9 kts | 92° |
| 2026-04-26 11:12 | 51.71610 | 46.17415 | 106 ft | 10 kts | 141° |
| 2026-04-26 11:12 | 51.71548 | 46.17427 | 106 ft | 8 kts | 176° |
| 2026-04-26 11:12 | 51.71496 | 46.17423 | 106 ft | 7 kts | 184° |
| 2026-04-26 11:12 | 51.71450 | 46.17419 | 106 ft | 7 kts | 183° |
| 2026-04-26 11:13 | 51.71403 | 46.17417 | 106 ft | 7 kts | 181° |
| 2026-04-26 11:13 | 51.71401 | 46.17416 | 106 ft | 0 kts | 181° |
| 2026-04-26 11:14 | 51.71389 | 46.17416 | 106 ft | 0 kts | 180° |
| 2026-04-26 11:14 | 51.71345 | 46.17415 | 105 ft | 11 kts | 180° |
| 2026-04-26 11:15 | 51.71279 | 46.17405 | 105 ft | 8 kts | 203° |
| 2026-04-26 11:15 | 51.71258 | 46.17345 | 105 ft | 3 kts | 269° |
| 2026-04-26 11:15 | 51.71258 | 46.17344 | 105 ft | 0 kts | 270° |
| 2026-04-26 11:15 | 51.71255 | 46.17260 | 104 ft | 21 kts | 262° |
| 2026-04-26 11:16 | 51.71265 | 46.16811 | 101 ft | 63 kts | 270° |
| 2026-04-26 11:16 | 51.71291 | 46.15976 | 209 ft | 80 kts | 261° |
| 2026-04-26 11:16 | 51.71340 | 46.15072 | 434 ft | 83 kts | 272° |
| 2026-04-26 11:16 | 51.71410 | 46.14142 | 781 ft | 80 kts | 264° |
| 2026-04-26 11:17 | 51.71474 | 46.13219 | 1008 ft | 88 kts | 269° |
| 2026-04-26 11:17 | 51.71775 | 46.12408 | 1267 ft | 93 kts | 316° |
| 2026-04-26 11:17 | 51.72435 | 46.12023 | 1367 ft | 106 kts | 345° |
| 2026-04-26 11:17 | 51.73200 | 46.12084 | 1411 ft | 112 kts | 349° |
| 2026-04-26 11:18 | 51.73969 | 46.12160 | 1427 ft | 111 kts | 351° |
| 2026-04-26 11:18 | 51.74690 | 46.12248 | 1588 ft | 102 kts | 346° |
| 2026-04-26 11:18 | 51.75406 | 46.12262 | 1721 ft | 101 kts | 346° |
| 2026-04-26 11:18 | 51.76089 | 46.12132 | 1766 ft | 98 kts | 332° |
| 2026-04-26 11:19 | 51.76740 | 46.11925 | 1973 ft | 97 kts | 343° |
| 2026-04-26 11:19 | 51.77412 | 46.11852 | 2019 ft | 101 kts | 346° |
| 2026-04-26 11:19 | 51.78122 | 46.11763 | 1997 ft | 103 kts | 338° |
| 2026-04-26 11:19 | 51.78848 | 46.11888 | 2046 ft | 114 kts | 13° |
| 2026-04-26 11:20 | 51.79469 | 46.12798 | 2021 ft | 127 kts | 49° |
| 2026-04-26 11:20 | 51.79719 | 46.13653 | 2018 ft | 129 kts | 66° |
| 2026-04-26 11:20 | 51.79947 | 46.15521 | 1955 ft | 126 kts | 88° |
| 2026-04-26 11:20 | 51.79955 | 46.16934 | 1980 ft | 119 kts | 96° |
| 2026-04-26 11:21 | 51.79896 | 46.18246 | 1994 ft | 118 kts | 99° |
| 2026-04-26 11:21 | 51.79830 | 46.19565 | 1980 ft | 116 kts | 97° |
| 2026-04-26 11:21 | 51.79813 | 46.20922 | 1975 ft | 121 kts | 87° |
| 2026-04-26 11:21 | 51.79867 | 46.22218 | 1977 ft | 119 kts | 86° |
| 2026-04-26 11:22 | 51.79966 | 46.23565 | 1921 ft | 121 kts | 83° |
| 2026-04-26 11:22 | 51.80005 | 46.24894 | 1948 ft | 116 kts | 93° |
| 2026-04-26 11:22 | 51.79989 | 46.26190 | 1990 ft | 112 kts | 92° |
| 2026-04-26 11:22 | 51.79845 | 46.27415 | 1999 ft | 108 kts | 130° |
| 2026-04-26 11:23 | 51.79315 | 46.28082 | 1986 ft | 94 kts | 178° |
| 2026-04-26 11:23 | 51.78662 | 46.28291 | 1969 ft | 97 kts | 184° |
| 2026-04-26 11:23 | 51.78027 | 46.28486 | 1995 ft | 88 kts | 191° |
| 2026-04-26 11:23 | 51.77427 | 46.28461 | 1934 ft | 89 kts | 199° |
| 2026-04-26 11:24 | 51.76835 | 46.28348 | 1947 ft | 85 kts | 202° |
| 2026-04-26 11:24 | 51.76241 | 46.28227 | 1916 ft | 84 kts | 210° |
| 2026-04-26 11:24 | 51.75714 | 46.27961 | 1944 ft | 80 kts | 210° |
| 2026-04-26 11:24 | 51.75185 | 46.27711 | 1968 ft | 79 kts | 209° |
| 2026-04-26 11:25 | 51.74650 | 46.27430 | 2011 ft | 83 kts | 210° |
| 2026-04-26 11:25 | 51.74119 | 46.27094 | 2059 ft | 81 kts | 217° |
| 2026-04-26 11:25 | 51.73622 | 46.26693 | 2119 ft | 80 kts | 218° |
| 2026-04-26 11:25 | 51.73161 | 46.26234 | 2210 ft | 79 kts | 222° |
| 2026-04-26 11:26 | 51.72677 | 46.25752 | 2325 ft | 82 kts | 220° |
| 2026-04-26 11:26 | 51.72148 | 46.25348 | 2248 ft | 84 kts | 212° |
| 2026-04-26 11:26 | 51.71583 | 46.25057 | 2195 ft | 84 kts | 213° |
| 2026-04-26 11:26 | 51.71009 | 46.24743 | 2139 ft | 88 kts | 211° |
| 2026-04-26 11:27 | 51.70411 | 46.24395 | 2028 ft | 94 kts | 207° |
| 2026-04-26 11:27 | 51.69797 | 46.24122 | 2001 ft | 89 kts | 208° |
| 2026-04-26 11:27 | 51.69212 | 46.23811 | 1914 ft | 90 kts | 210° |
| 2026-04-26 11:27 | 51.68656 | 46.23538 | 1966 ft | 84 kts | 207° |
| 2026-04-26 11:28 | 51.68100 | 46.23268 | 2026 ft | 82 kts | 205° |
| 2026-04-26 11:28 | 51.67544 | 46.23028 | 2033 ft | 85 kts | 206° |
| 2026-04-26 11:28 | 51.66974 | 46.22782 | 2033 ft | 86 kts | 203° |
| 2026-04-26 11:28 | 51.66393 | 46.22559 | 2032 ft | 84 kts | 211° |
| 2026-04-26 11:29 | 51.65843 | 46.22293 | 2013 ft | 86 kts | 207° |
| 2026-04-26 11:29 | 51.65259 | 46.22065 | 2020 ft | 86 kts | 205° |
| 2026-04-26 11:29 | 51.64667 | 46.21853 | 2008 ft | 86 kts | 207° |
| 2026-04-26 11:29 | 51.64094 | 46.21584 | 1991 ft | 85 kts | 207° |
| 2026-04-26 11:30 | 51.63525 | 46.21360 | 2002 ft | 84 kts | 207° |
| 2026-04-26 11:30 | 51.63154 | 46.21196 | 2031 ft | 82 kts | 208° |
| 2026-04-26 11:30 | 51.62396 | 46.20990 | 2085 ft | 83 kts | 204° |
| 2026-04-26 11:30 | 51.61839 | 46.20816 | 2083 ft | 86 kts | 209° |
| 2026-04-26 11:31 | 51.61260 | 46.20536 | 2146 ft | 83 kts | 208° |
| 2026-04-26 11:31 | 51.60661 | 46.20246 | 2043 ft | 93 kts | 208° |
| 2026-04-26 11:31 | 51.60084 | 46.20013 | 2249 ft | 80 kts | 207° |
| 2026-04-26 11:31 | 51.59576 | 46.19728 | 2398 ft | 78 kts | 212° |
| 2026-04-26 11:32 | 51.59222 | 46.19162 | 2277 ft | 80 kts | 265° |
| 2026-04-26 11:32 | 51.59635 | 46.18397 | 2109 ft | 111 kts | 328° |
| 2026-04-26 11:32 | 51.60347 | 46.18041 | 2003 ft | 104 kts | 332° |
| 2026-04-26 11:32 | 51.61035 | 46.17668 | 1793 ft | 100 kts | 324° |
| 2026-04-26 11:33 | 51.61599 | 46.17151 | 1711 ft | 88 kts | 305° |
| 2026-04-26 11:33 | 51.61911 | 46.16392 | 1613 ft | 81 kts | 283° |
| 2026-04-26 11:33 | 51.62039 | 46.15520 | 1517 ft | 83 kts | 271° |
| 2026-04-26 11:33 | 51.62035 | 46.14602 | 1467 ft | 78 kts | 263° |
| 2026-04-26 11:34 | 51.61975 | 46.13761 | 1478 ft | 75 kts | 261° |
| 2026-04-26 11:34 | 51.62054 | 46.12976 | 1538 ft | 77 kts | 282° |
| 2026-04-26 11:34 | 51.62397 | 46.12242 | 1520 ft | 97 kts | 324° |
| 2026-04-26 11:34 | 51.63103 | 46.12471 | 1528 ft | 122 kts | 40° |
| 2026-04-26 11:35 | 51.63319 | 46.13685 | 1554 ft | 105 kts | 122° |
| 2026-04-26 11:35 | 51.62799 | 46.13978 | 1471 ft | 81 kts | 219° |
| 2026-04-26 11:35 | 51.62437 | 46.13287 | 1459 ft | 82 kts | 245° |
| 2026-04-26 11:35 | 51.62342 | 46.12702 | 1540 ft | 82 kts | 264° |
| 2026-04-26 11:36 | 51.62415 | 46.11420 | 1510 ft | 91 kts | 279° |
| 2026-04-26 11:36 | 51.62748 | 46.10466 | 1261 ft | 104 kts | 296° |
| 2026-04-26 11:36 | 51.63370 | 46.09901 | 1399 ft | 106 kts | 339° |
| 2026-04-26 11:36 | 51.64149 | 46.09963 | 1340 ft | 116 kts | 352° |
| 2026-04-26 11:37 | 51.64632 | 46.09365 | 1034 ft | 87 kts | 253° |
| 2026-04-26 11:37 | 51.64543 | 46.08332 | 712 ft | 98 kts | 266° |
| 2026-04-26 11:37 | 51.64585 | 46.07283 | 735 ft | 91 kts | 259° |
| 2026-04-26 11:37 | 51.64545 | 46.06306 | 809 ft | 87 kts | 254° |
| 2026-04-26 11:38 | 51.64508 | 46.05344 | 938 ft | 84 kts | 257° |
| 2026-04-26 11:38 | 51.64502 | 46.04418 | 1040 ft | 83 kts | 258° |
| 2026-04-26 11:38 | 51.64480 | 46.03506 | 1190 ft | 80 kts | 259° |
| 2026-04-26 11:38 | 51.64444 | 46.02620 | 1289 ft | 81 kts | 264° |
| 2026-04-26 11:39 | 51.64291 | 46.01863 | 1448 ft | 74 kts | 212° |
| 2026-04-26 11:39 | 51.63730 | 46.01757 | 1544 ft | 81 kts | 197° |
| 2026-04-26 11:39 | 51.63132 | 46.01661 | 1523 ft | 91 kts | 192° |
| 2026-04-26 11:39 | 51.62519 | 46.01479 | 1574 ft | 90 kts | 195° |
| 2026-04-26 11:40 | 51.61978 | 46.02016 | 1661 ft | 111 kts | 126° |
| 2026-04-26 11:40 | 51.61868 | 46.03358 | 1578 ft | 128 kts | 97° |
| 2026-04-26 11:40 | 51.61837 | 46.04812 | 1490 ft | 129 kts | 102° |
| 2026-04-26 11:40 | 51.61808 | 46.06266 | 1411 ft | 127 kts | 98° |
| 2026-04-26 11:41 | 51.61787 | 46.07626 | 1473 ft | 116 kts | 102° |
| 2026-04-26 11:42 | 51.64106 | 46.12825 | 967 ft | 100 kts | 338° |
| 2026-04-26 11:43 | 51.64608 | 46.12307 | 902 ft | 77 kts | 278° |
| 2026-04-26 11:43 | 51.64619 | 46.11529 | 767 ft | 69 kts | 253° |
| 2026-04-26 11:43 | 51.64604 | 46.10724 | 697 ft | 74 kts | 257° |
| 2026-04-26 11:43 | 51.64577 | 46.09909 | 665 ft | 71 kts | 249° |
| 2026-04-26 11:44 | 51.64557 | 46.09385 | 663 ft | 72 kts | 262° |
| 2026-04-26 11:44 | 51.64551 | 46.08563 | 633 ft | 74 kts | 253° |
| 2026-04-26 11:44 | 51.64529 | 46.07701 | 561 ft | 79 kts | 255° |
| 2026-04-26 11:44 | 51.64510 | 46.06838 | 468 ft | 70 kts | 258° |
| 2026-04-26 11:45 | 51.64498 | 46.06275 | 463 ft | 32 kts | 273° |
| 2026-04-26 11:45 | 51.64489 | 46.05924 | 463 ft | 31 kts | 271° |
| 2026-04-26 11:45 | 51.64489 | 46.05695 | 461 ft | 8 kts | 127° |
| 2026-04-26 11:45 | 51.64491 | 46.05856 | 462 ft | 23 kts | 88° |
| 2026-04-26 11:46 | 51.64498 | 46.06185 | 461 ft | 33 kts | 86° |
| 2026-04-26 11:46 | 51.64504 | 46.06572 | 464 ft | 38 kts | 85° |
| 2026-04-26 11:46 | 51.64549 | 46.06797 | 463 ft | 16 kts | 358° |
| 2026-04-26 11:46 | 51.64610 | 46.06681 | 463 ft | 14 kts | 297° |
| 2026-04-26 11:47 | 51.64656 | 46.06552 | 463 ft | 14 kts | 297° |
| 2026-04-26 11:47 | 51.64706 | 46.06408 | 463 ft | 16 kts | 297° |
| 2026-04-26 11:47 | 51.64763 | 46.06245 | 463 ft | 18 kts | 300° |
| 2026-04-26 11:47 | 51.64841 | 46.06134 | 463 ft | 8 kts | 326° |
| 2026-04-26 11:48 | 51.64846 | 46.06109 | 463 ft | 0 kts | 211° |